Volkhov, Russia
Current Conditions -  °F | °C
As of 10:00 PM on Friday 24 Oct 2014 (Local Time) from ULLI Reporting Station
Clear Clear  
Wind Chill: 23°   Ceiling: Unl
Heat Index: 28°   Visibility: 6mi
Dew Point: 23°   Wind: 4mph
Humidity: 80%   Direction: 160°SSE
Pressure: 30.59"   Gusts: NA
Location:  59.93°N, 32.34°E
Report Text: ULLI 241900Z 16002MPS 120V180 CAVOK M02/M05 Q1036 6019004510////// NOSIG
Loading
Personal Weather Stations






























Interactive Weather Map
Tropical Storm Tracking
New forecast layout! Learn more

10-Day Weather Forecast

Advertisements
Track Severe Weather on mobile